sensor_id;sensor_type;location;lat;lon;timestamp;P1;durP1;ratioP1;P2;durP2;ratioP2
42662;SDS011;44330;51.360;6.686;2023-05-21T00:01:52;17.20;;;11.63;;
42662;SDS011;44330;51.360;6.686;2023-05-21T00:04:18;17.92;;;10.85;;
42662;SDS011;44330;51.360;6.686;2023-05-21T00:06:43;16.90;;;11.60;;
42662;SDS011;44330;51.360;6.686;2023-05-21T00:09:09;14.45;;;11.18;;
42662;SDS011;44330;51.360;6.686;2023-05-21T00:11:36;17.50;;;10.88;;
42662;SDS011;44330;51.360;6.686;2023-05-21T00:14:02;15.35;;;10.93;;
42662;SDS011;44330;51.360;6.686;2023-05-21T00:16:27;19.38;;;11.60;;
42662;SDS011;44330;51.360;6.686;2023-05-21T00:18:53;16.02;;;10.68;;
42662;SDS011;44330;51.360;6.686;2023-05-21T00:21:19;17.25;;;10.10;;
42662;SDS011;44330;51.360;6.686;2023-05-21T00:23:49;15.43;;;10.82;;
42662;SDS011;44330;51.360;6.686;2023-05-21T00:26:18;17.85;;;10.68;;
42662;SDS011;44330;51.360;6.686;2023-05-21T00:28:45;18.50;;;10.57;;
42662;SDS011;44330;51.360;6.686;2023-05-21T00:31:11;18.23;;;10.55;;
42662;SDS011;44330;51.360;6.686;2023-05-21T00:33:36;14.40;;;10.30;;
42662;SDS011;44330;51.360;6.686;2023-05-21T00:36:02;14.45;;;9.95;;
42662;SDS011;44330;51.360;6.686;2023-05-21T00:38:30;16.38;;;10.05;;
42662;SDS011;44330;51.360;6.686;2023-05-21T00:40:58;16.08;;;9.90;;
42662;SDS011;44330;51.360;6.686;2023-05-21T00:43:25;13.88;;;9.98;;
42662;SDS011;44330;51.360;6.686;2023-05-21T00:45:51;15.20;;;9.68;;
42662;SDS011;44330;51.360;6.686;2023-05-21T00:48:17;15.55;;;10.30;;
42662;SDS011;44330;51.360;6.686;2023-05-21T00:50:44;16.73;;;9.88;;
42662;SDS011;44330;51.360;6.686;2023-05-21T00:53:10;15.02;;;9.55;;
42662;SDS011;44330;51.360;6.686;2023-05-21T00:55:37;13.35;;;8.63;;
42662;SDS011;44330;51.360;6.686;2023-05-21T00:58:04;17.25;;;10.23;;
42662;SDS011;44330;51.360;6.686;2023-05-21T01:00:33;13.32;;;9.25;;
42662;SDS011;44330;51.360;6.686;2023-05-21T01:03:00;12.60;;;9.10;;
42662;SDS011;44330;51.360;6.686;2023-05-21T01:05:29;17.15;;;9.52;;
42662;SDS011;44330;51.360;6.686;2023-05-21T01:07:55;15.60;;;9.10;;
42662;SDS011;44330;51.360;6.686;2023-05-21T01:10:22;12.60;;;8.70;;
42662;SDS011;44330;51.360;6.686;2023-05-21T01:12:49;13.48;;;9.27;;
42662;SDS011;44330;51.360;6.686;2023-05-21T01:15:16;12.70;;;8.43;;
42662;SDS011;44330;51.360;6.686;2023-05-21T01:17:42;11.48;;;7.88;;
42662;SDS011;44330;51.360;6.686;2023-05-21T01:20:09;14.98;;;8.52;;
42662;SDS011;44330;51.360;6.686;2023-05-21T01:22:41;11.35;;;8.18;;
42662;SDS011;44330;51.360;6.686;2023-05-21T01:25:15;10.50;;;7.40;;
42662;SDS011;44330;51.360;6.686;2023-05-21T01:27:41;11.30;;;7.90;;
42662;SDS011;44330;51.360;6.686;2023-05-21T01:30:07;9.80;;;7.28;;
42662;SDS011;44330;51.360;6.686;2023-05-21T01:35:43;13.40;;;8.27;;
42662;SDS011;44330;51.360;6.686;2023-05-21T01:43:35;11.93;;;7.35;;
42662;SDS011;44330;51.360;6.686;2023-05-21T01:46:03;10.53;;;7.03;;
42662;SDS011;44330;51.360;6.686;2023-05-21T01:48:30;12.05;;;7.68;;
42662;SDS011;44330;51.360;6.686;2023-05-21T01:50:59;8.90;;;6.70;;
42662;SDS011;44330;51.360;6.686;2023-05-21T01:53:27;10.65;;;6.75;;
42662;SDS011;44330;51.360;6.686;2023-05-21T01:55:52;9.50;;;6.53;;
42662;SDS011;44330;51.360;6.686;2023-05-21T01:58:18;10.00;;;6.88;;
42662;SDS011;44330;51.360;6.686;2023-05-21T02:00:45;8.88;;;6.60;;
42662;SDS011;44330;51.360;6.686;2023-05-21T02:03:11;9.60;;;6.40;;
42662;SDS011;44330;51.360;6.686;2023-05-21T02:05:39;10.57;;;7.50;;
42662;SDS011;44330;51.360;6.686;2023-05-21T02:08:05;12.52;;;6.75;;
42662;SDS011;44330;51.360;6.686;2023-05-21T02:10:32;14.27;;;6.38;;
42662;SDS011;44330;51.360;6.686;2023-05-21T02:12:58;10.52;;;6.68;;
42662;SDS011;44330;51.360;6.686;2023-05-21T02:15:23;9.60;;;6.55;;
42662;SDS011;44330;51.360;6.686;2023-05-21T02:17:49;7.40;;;5.68;;
42662;SDS011;44330;51.360;6.686;2023-05-21T02:20:15;8.82;;;6.32;;
42662;SDS011;44330;51.360;6.686;2023-05-21T02:22:45;12.38;;;6.88;;
42662;SDS011;44330;51.360;6.686;2023-05-21T02:25:13;9.88;;;6.10;;
42662;SDS011;44330;51.360;6.686;2023-05-21T02:27:40;9.50;;;6.47;;
42662;SDS011;44330;51.360;6.686;2023-05-21T02:30:07;8.45;;;6.30;;
42662;SDS011;44330;51.360;6.686;2023-05-21T02:32:35;8.60;;;5.68;;
42662;SDS011;44330;51.360;6.686;2023-05-21T02:35:01;9.13;;;6.22;;
42662;SDS011;44330;51.360;6.686;2023-05-21T02:37:27;13.23;;;7.13;;
42662;SDS011;44330;51.360;6.686;2023-05-21T02:39:54;10.70;;;7.00;;
42662;SDS011;44330;51.360;6.686;2023-05-21T02:42:23;9.27;;;6.13;;
42662;SDS011;44330;51.360;6.686;2023-05-21T02:44:49;11.90;;;6.80;;
42662;SDS011;44330;51.360;6.686;2023-05-21T02:47:17;10.00;;;6.38;;
42662;SDS011;44330;51.360;6.686;2023-05-21T02:49:44;15.98;;;6.65;;
42662;SDS011;44330;51.360;6.686;2023-05-21T02:52:10;11.77;;;7.05;;
42662;SDS011;44330;51.360;6.686;2023-05-21T02:54:35;11.10;;;6.70;;
42662;SDS011;44330;51.360;6.686;2023-05-21T02:57:01;9.60;;;6.68;;
42662;SDS011;44330;51.360;6.686;2023-05-21T02:59:27;9.50;;;6.70;;
42662;SDS011;44330;51.360;6.686;2023-05-21T03:01:52;10.43;;;7.22;;
42662;SDS011;44330;51.360;6.686;2023-05-21T03:04:18;11.93;;;7.25;;
42662;SDS011;44330;51.360;6.686;2023-05-21T03:06:46;13.02;;;8.82;;
42662;SDS011;44330;51.360;6.686;2023-05-21T03:09:19;11.88;;;7.80;;
42662;SDS011;44330;51.360;6.686;2023-05-21T03:11:45;12.68;;;8.23;;
42662;SDS011;44330;51.360;6.686;2023-05-21T03:14:11;14.65;;;9.32;;
42662;SDS011;44330;51.360;6.686;2023-05-21T03:16:37;12.10;;;8.75;;
42662;SDS011;44330;51.360;6.686;2023-05-21T03:19:05;13.00;;;8.88;;
42662;SDS011;44330;51.360;6.686;2023-05-21T03:21:31;12.77;;;8.48;;
42662;SDS011;44330;51.360;6.686;2023-05-21T03:23:57;13.90;;;8.48;;
42662;SDS011;44330;51.360;6.686;2023-05-21T03:26:23;15.82;;;8.55;;
42662;SDS011;44330;51.360;6.686;2023-05-21T03:28:51;12.18;;;8.45;;
42662;SDS011;44330;51.360;6.686;2023-05-21T03:31:18;11.50;;;8.23;;
42662;SDS011;44330;51.360;6.686;2023-05-21T03:33:44;14.82;;;8.38;;
42662;SDS011;44330;51.360;6.686;2023-05-21T03:36:10;13.90;;;9.57;;
42662;SDS011;44330;51.360;6.686;2023-05-21T03:38:35;13.93;;;8.60;;
42662;SDS011;44330;51.360;6.686;2023-05-21T03:41:01;13.30;;;8.23;;
42662;SDS011;44330;51.360;6.686;2023-05-21T03:43:26;16.58;;;9.82;;
42662;SDS011;44330;51.360;6.686;2023-05-21T03:45:53;14.23;;;9.43;;
42662;SDS011;44330;51.360;6.686;2023-05-21T03:48:19;15.80;;;9.60;;
42662;SDS011;44330;51.360;6.686;2023-05-21T03:50:44;19.25;;;9.77;;
42662;SDS011;44330;51.360;6.686;2023-05-21T03:53:10;17.33;;;9.63;;
42662;SDS011;44330;51.360;6.686;2023-05-21T03:55:36;16.92;;;8.85;;
42662;SDS011;44330;51.360;6.686;2023-05-21T03:58:02;15.88;;;9.70;;
42662;SDS011;44330;51.360;6.686;2023-05-21T04:00:27;15.82;;;9.13;;
42662;SDS011;44330;51.360;6.686;2023-05-21T04:02:53;16.83;;;8.85;;
42662;SDS011;44330;51.360;6.686;2023-05-21T04:05:19;19.48;;;9.20;;
42662;SDS011;44330;51.360;6.686;2023-05-21T04:07:44;13.95;;;8.68;;
42662;SDS011;44330;51.360;6.686;2023-05-21T04:10:10;14.98;;;8.88;;
42662;SDS011;44330;51.360;6.686;2023-05-21T04:12:36;17.13;;;9.63;;
42662;SDS011;44330;51.360;6.686;2023-05-21T04:15:02;18.23;;;10.13;;
42662;SDS011;44330;51.360;6.686;2023-05-21T04:17:28;16.50;;;9.95;;
42662;SDS011;44330;51.360;6.686;2023-05-21T04:19:53;16.67;;;9.50;;
42662;SDS011;44330;51.360;6.686;2023-05-21T04:22:19;18.90;;;10.05;;
42662;SDS011;44330;51.360;6.686;2023-05-21T04:24:45;17.00;;;10.50;;
42662;SDS011;44330;51.360;6.686;2023-05-21T04:27:12;18.05;;;9.73;;
42662;SDS011;44330;51.360;6.686;2023-05-21T04:29:40;15.48;;;8.60;;
42662;SDS011;44330;51.360;6.686;2023-05-21T04:32:06;17.15;;;9.70;;
42662;SDS011;44330;51.360;6.686;2023-05-21T04:34:32;15.43;;;9.35;;
42662;SDS011;44330;51.360;6.686;2023-05-21T04:36:58;13.02;;;8.70;;
42662;SDS011;44330;51.360;6.686;2023-05-21T04:39:26;13.80;;;8.65;;
42662;SDS011;44330;51.360;6.686;2023-05-21T04:41:52;14.07;;;9.57;;
42662;SDS011;44330;51.360;6.686;2023-05-21T04:44:20;14.88;;;8.55;;
42662;SDS011;44330;51.360;6.686;2023-05-21T04:46:46;13.02;;;8.57;;
42662;SDS011;44330;51.360;6.686;2023-05-21T04:49:13;13.43;;;8.75;;
42662;SDS011;44330;51.360;6.686;2023-05-21T04:51:39;15.30;;;8.68;;
42662;SDS011;44330;51.360;6.686;2023-05-21T04:54:05;12.82;;;8.90;;
42662;SDS011;44330;51.360;6.686;2023-05-21T04:56:31;16.10;;;8.80;;
42662;SDS011;44330;51.360;6.686;2023-05-21T04:58:57;15.27;;;8.57;;
42662;SDS011;44330;51.360;6.686;2023-05-21T05:01:23;16.35;;;8.95;;
42662;SDS011;44330;51.360;6.686;2023-05-21T05:03:50;15.77;;;9.85;;
42662;SDS011;44330;51.360;6.686;2023-05-21T05:06:16;12.60;;;8.63;;
42662;SDS011;44330;51.360;6.686;2023-05-21T05:08:43;16.25;;;8.50;;
42662;SDS011;44330;51.360;6.686;2023-05-21T05:11:10;13.93;;;9.40;;
42662;SDS011;44330;51.360;6.686;2023-05-21T05:13:36;14.20;;;8.43;;
42662;SDS011;44330;51.360;6.686;2023-05-21T05:16:02;12.70;;;8.25;;
42662;SDS011;44330;51.360;6.686;2023-05-21T05:18:30;14.80;;;8.82;;
42662;SDS011;44330;51.360;6.686;2023-05-21T05:20:56;14.38;;;8.13;;
42662;SDS011;44330;51.360;6.686;2023-05-21T05:23:21;11.93;;;8.75;;
42662;SDS011;44330;51.360;6.686;2023-05-21T05:25:47;11.93;;;8.80;;
42662;SDS011;44330;51.360;6.686;2023-05-21T05:28:12;16.23;;;9.05;;
42662;SDS011;44330;51.360;6.686;2023-05-21T05:30:38;13.95;;;9.55;;
42662;SDS011;44330;51.360;6.686;2023-05-21T05:33:03;11.60;;;8.50;;
42662;SDS011;44330;51.360;6.686;2023-05-21T05:35:29;12.82;;;8.10;;
42662;SDS011;44330;51.360;6.686;2023-05-21T05:37:54;15.05;;;8.93;;
42662;SDS011;44330;51.360;6.686;2023-05-21T05:40:20;18.60;;;8.90;;
42662;SDS011;44330;51.360;6.686;2023-05-21T05:42:46;12.70;;;9.32;;
42662;SDS011;44330;51.360;6.686;2023-05-21T05:45:13;13.65;;;9.30;;
42662;SDS011;44330;51.360;6.686;2023-05-21T05:47:39;14.85;;;8.32;;
42662;SDS011;44330;51.360;6.686;2023-05-21T05:50:04;13.93;;;8.27;;
42662;SDS011;44330;51.360;6.686;2023-05-21T05:52:30;12.32;;;8.82;;
42662;SDS011;44330;51.360;6.686;2023-05-21T05:54:56;10.95;;;8.40;;
42662;SDS011;44330;51.360;6.686;2023-05-21T05:57:21;12.18;;;7.70;;
42662;SDS011;44330;51.360;6.686;2023-05-21T05:59:47;13.32;;;8.63;;
42662;SDS011;44330;51.360;6.686;2023-05-21T06:02:12;14.55;;;8.85;;
42662;SDS011;44330;51.360;6.686;2023-05-21T06:04:38;10.90;;;8.40;;
42662;SDS011;44330;51.360;6.686;2023-05-21T06:07:03;13.82;;;8.35;;
42662;SDS011;44330;51.360;6.686;2023-05-21T06:09:29;13.63;;;9.18;;
42662;SDS011;44330;51.360;6.686;2023-05-21T06:11:55;13.25;;;8.45;;
42662;SDS011;44330;51.360;6.686;2023-05-21T06:14:20;10.45;;;8.43;;
42662;SDS011;44330;51.360;6.686;2023-05-21T06:16:46;10.45;;;8.05;;
42662;SDS011;44330;51.360;6.686;2023-05-21T06:19:11;12.63;;;8.20;;
42662;SDS011;44330;51.360;6.686;2023-05-21T06:21:37;16.15;;;8.68;;
42662;SDS011;44330;51.360;6.686;2023-05-21T06:24:02;15.07;;;9.13;;
42662;SDS011;44330;51.360;6.686;2023-05-21T06:26:28;11.30;;;8.93;;
42662;SDS011;44330;51.360;6.686;2023-05-21T06:28:54;13.57;;;8.13;;
42662;SDS011;44330;51.360;6.686;2023-05-21T06:31:20;15.15;;;8.75;;
42662;SDS011;44330;51.360;6.686;2023-05-21T06:33:46;12.02;;;8.05;;
42662;SDS011;44330;51.360;6.686;2023-05-21T06:36:13;11.98;;;8.05;;
42662;SDS011;44330;51.360;6.686;2023-05-21T06:38:39;12.15;;;8.48;;
42662;SDS011;44330;51.360;6.686;2023-05-21T06:41:04;12.45;;;9.05;;
42662;SDS011;44330;51.360;6.686;2023-05-21T06:43:30;11.80;;;8.48;;
42662;SDS011;44330;51.360;6.686;2023-05-21T06:45:56;17.67;;;9.85;;
42662;SDS011;44330;51.360;6.686;2023-05-21T06:48:21;14.00;;;9.25;;
42662;SDS011;44330;51.360;6.686;2023-05-21T06:50:47;12.23;;;9.40;;
42662;SDS011;44330;51.360;6.686;2023-05-21T06:53:12;12.43;;;8.77;;
42662;SDS011;44330;51.360;6.686;2023-05-21T06:55:40;16.65;;;9.68;;
42662;SDS011;44330;51.360;6.686;2023-05-21T06:58:08;13.18;;;8.65;;
42662;SDS011;44330;51.360;6.686;2023-05-21T07:00:35;13.82;;;8.73;;
42662;SDS011;44330;51.360;6.686;2023-05-21T07:03:00;15.70;;;9.35;;
42662;SDS011;44330;51.360;6.686;2023-05-21T07:05:26;10.88;;;8.65;;
42662;SDS011;44330;51.360;6.686;2023-05-21T07:07:51;16.50;;;8.90;;
42662;SDS011;44330;51.360;6.686;2023-05-21T07:10:17;14.63;;;9.20;;
42662;SDS011;44330;51.360;6.686;2023-05-21T07:12:43;13.73;;;8.45;;
42662;SDS011;44330;51.360;6.686;2023-05-21T07:15:09;18.15;;;9.60;;
42662;SDS011;44330;51.360;6.686;2023-05-21T07:17:35;13.55;;;9.18;;
42662;SDS011;44330;51.360;6.686;2023-05-21T07:20:01;16.48;;;9.00;;
42662;SDS011;44330;51.360;6.686;2023-05-21T07:24:55;14.52;;;9.85;;
42662;SDS011;44330;51.360;6.686;2023-05-21T07:27:21;13.52;;;8.98;;
42662;SDS011;44330;51.360;6.686;2023-05-21T07:29:46;12.38;;;9.32;;
42662;SDS011;44330;51.360;6.686;2023-05-21T07:32:12;13.98;;;8.60;;
42662;SDS011;44330;51.360;6.686;2023-05-21T07:34:37;11.48;;;9.00;;
42662;SDS011;44330;51.360;6.686;2023-05-21T07:37:03;12.23;;;8.85;;
42662;SDS011;44330;51.360;6.686;2023-05-21T07:39:28;13.15;;;9.43;;
42662;SDS011;44330;51.360;6.686;2023-05-21T07:41:55;16.17;;;9.27;;
42662;SDS011;44330;51.360;6.686;2023-05-21T07:44:20;12.65;;;9.20;;
42662;SDS011;44330;51.360;6.686;2023-05-21T07:46:46;17.58;;;9.75;;
42662;SDS011;44330;51.360;6.686;2023-05-21T07:49:11;13.13;;;9.48;;
42662;SDS011;44330;51.360;6.686;2023-05-21T07:54:09;17.77;;;9.82;;
42662;SDS011;44330;51.360;6.686;2023-05-21T07:56:35;15.15;;;9.68;;
42662;SDS011;44330;51.360;6.686;2023-05-21T07:59:00;15.88;;;10.00;;
42662;SDS011;44330;51.360;6.686;2023-05-21T08:01:26;14.50;;;9.32;;
42662;SDS011;44330;51.360;6.686;2023-05-21T08:03:53;10.52;;;8.52;;
42662;SDS011;44330;51.360;6.686;2023-05-21T08:06:19;12.80;;;9.85;;
42662;SDS011;44330;51.360;6.686;2023-05-21T08:08:46;16.67;;;9.63;;
42662;SDS011;44330;51.360;6.686;2023-05-21T08:11:11;12.75;;;9.40;;
42662;SDS011;44330;51.360;6.686;2023-05-21T08:13:37;21.58;;;10.80;;
42662;SDS011;44330;51.360;6.686;2023-05-21T08:16:03;14.52;;;10.02;;
42662;SDS011;44330;51.360;6.686;2023-05-21T08:18:29;16.95;;;10.25;;
42662;SDS011;44330;51.360;6.686;2023-05-21T08:20:54;14.38;;;10.18;;
42662;SDS011;44330;51.360;6.686;2023-05-21T08:23:20;14.15;;;10.35;;
42662;SDS011;44330;51.360;6.686;2023-05-21T08:25:46;15.82;;;10.10;;
42662;SDS011;44330;51.360;6.686;2023-05-21T08:28:11;17.83;;;10.15;;
42662;SDS011;44330;51.360;6.686;2023-05-21T08:30:37;16.35;;;10.45;;
42662;SDS011;44330;51.360;6.686;2023-05-21T08:33:02;17.77;;;11.30;;
42662;SDS011;44330;51.360;6.686;2023-05-21T08:35:28;16.42;;;10.88;;
42662;SDS011;44330;51.360;6.686;2023-05-21T08:37:53;13.68;;;9.90;;
42662;SDS011;44330;51.360;6.686;2023-05-21T08:40:19;14.68;;;11.63;;
42662;SDS011;44330;51.360;6.686;2023-05-21T08:42:45;15.63;;;10.93;;
42662;SDS011;44330;51.360;6.686;2023-05-21T08:45:12;18.50;;;10.52;;
42662;SDS011;44330;51.360;6.686;2023-05-21T08:47:44;18.33;;;11.73;;
42662;SDS011;44330;51.360;6.686;2023-05-21T08:50:11;14.45;;;10.70;;
42662;SDS011;44330;51.360;6.686;2023-05-21T08:52:38;16.95;;;11.32;;
42662;SDS011;44330;51.360;6.686;2023-05-21T08:55:04;15.10;;;10.82;;
42662;SDS011;44330;51.360;6.686;2023-05-21T08:57:30;15.55;;;11.65;;
42662;SDS011;44330;51.360;6.686;2023-05-21T08:59:57;17.00;;;11.63;;
42662;SDS011;44330;51.360;6.686;2023-05-21T09:02:23;14.55;;;11.35;;
42662;SDS011;44330;51.360;6.686;2023-05-21T09:04:49;15.75;;;10.73;;
42662;SDS011;44330;51.360;6.686;2023-05-21T09:07:20;17.58;;;12.25;;
42662;SDS011;44330;51.360;6.686;2023-05-21T09:09:55;14.77;;;11.05;;
42662;SDS011;44330;51.360;6.686;2023-05-21T09:12:22;16.45;;;11.93;;
42662;SDS011;44330;51.360;6.686;2023-05-21T09:14:51;16.42;;;12.35;;
42662;SDS011;44330;51.360;6.686;2023-05-21T09:17:17;15.55;;;11.93;;
42662;SDS011;44330;51.360;6.686;2023-05-21T09:22:43;17.30;;;12.82;;
42662;SDS011;44330;51.360;6.686;2023-05-21T09:25:10;17.58;;;12.38;;
42662;SDS011;44330;51.360;6.686;2023-05-21T09:27:37;14.27;;;11.15;;
42662;SDS011;44330;51.360;6.686;2023-05-21T09:30:04;18.92;;;11.98;;
42662;SDS011;44330;51.360;6.686;2023-05-21T09:32:38;14.02;;;12.02;;
42662;SDS011;44330;51.360;6.686;2023-05-21T09:35:08;17.73;;;13.73;;
42662;SDS011;44330;51.360;6.686;2023-05-21T09:37:38;17.80;;;12.65;;
42662;SDS011;44330;51.360;6.686;2023-05-21T09:42:43;16.40;;;12.00;;
42662;SDS011;44330;51.360;6.686;2023-05-21T09:45:17;18.48;;;11.75;;
42662;SDS011;44330;51.360;6.686;2023-05-21T09:47:47;16.00;;;11.68;;
42662;SDS011;44330;51.360;6.686;2023-05-21T09:50:20;15.38;;;10.82;;
42662;SDS011;44330;51.360;6.686;2023-05-21T09:52:47;14.88;;;11.32;;
42662;SDS011;44330;51.360;6.686;2023-05-21T09:55:22;16.02;;;12.30;;
42662;SDS011;44330;51.360;6.686;2023-05-21T09:57:52;18.95;;;12.70;;
42662;SDS011;44330;51.360;6.686;2023-05-21T10:00:22;17.52;;;12.77;;
42662;SDS011;44330;51.360;6.686;2023-05-21T10:02:49;16.10;;;11.93;;
42662;SDS011;44330;51.360;6.686;2023-05-21T10:05:26;16.17;;;13.35;;
42662;SDS011;44330;51.360;6.686;2023-05-21T10:07:55;17.52;;;12.98;;
42662;SDS011;44330;51.360;6.686;2023-05-21T10:10:23;17.83;;;12.73;;
42662;SDS011;44330;51.360;6.686;2023-05-21T10:12:58;15.27;;;12.13;;
42662;SDS011;44330;51.360;6.686;2023-05-21T10:15:29;17.45;;;11.70;;
42662;SDS011;44330;51.360;6.686;2023-05-21T10:17:58;21.00;;;12.25;;
42662;SDS011;44330;51.360;6.686;2023-05-21T10:20:24;16.83;;;12.38;;
42662;SDS011;44330;51.360;6.686;2023-05-21T10:22:50;18.83;;;13.90;;
42662;SDS011;44330;51.360;6.686;2023-05-21T10:25:17;16.92;;;12.82;;
42662;SDS011;44330;51.360;6.686;2023-05-21T10:27:44;20.08;;;13.10;;
42662;SDS011;44330;51.360;6.686;2023-05-21T10:30:10;16.92;;;12.35;;
42662;SDS011;44330;51.360;6.686;2023-05-21T10:32:36;18.33;;;12.50;;
42662;SDS011;44330;51.360;6.686;2023-05-21T10:37:32;17.33;;;13.05;;
42662;SDS011;44330;51.360;6.686;2023-05-21T10:39:58;17.40;;;12.27;;
42662;SDS011;44330;51.360;6.686;2023-05-21T10:53:28;17.30;;;12.38;;
42662;SDS011;44330;51.360;6.686;2023-05-21T10:56:21;16.38;;;12.60;;
42662;SDS011;44330;51.360;6.686;2023-05-21T11:02:02;17.45;;;13.30;;
42662;SDS011;44330;51.360;6.686;2023-05-21T11:04:29;13.30;;;11.52;;
42662;SDS011;44330;51.360;6.686;2023-05-21T11:06:54;24.67;;;12.73;;
42662;SDS011;44330;51.360;6.686;2023-05-21T11:09:22;14.73;;;10.70;;
42662;SDS011;44330;51.360;6.686;2023-05-21T11:11:51;19.10;;;11.80;;
42662;SDS011;44330;51.360;6.686;2023-05-21T11:14:40;18.50;;;11.68;;
42662;SDS011;44330;51.360;6.686;2023-05-21T11:17:36;17.98;;;11.05;;
42662;SDS011;44330;51.360;6.686;2023-05-21T11:20:07;19.85;;;12.73;;
42662;SDS011;44330;51.360;6.686;2023-05-21T11:22:38;14.80;;;11.65;;
42662;SDS011;44330;51.360;6.686;2023-05-21T11:25:03;16.65;;;11.50;;
42662;SDS011;44330;51.360;6.686;2023-05-21T11:27:34;20.23;;;11.75;;
42662;SDS011;44330;51.360;6.686;2023-05-21T11:30:05;25.35;;;11.95;;
42662;SDS011;44330;51.360;6.686;2023-05-21T11:32:35;21.23;;;12.10;;
42662;SDS011;44330;51.360;6.686;2023-05-21T11:35:04;18.92;;;12.88;;
42662;SDS011;44330;51.360;6.686;2023-05-21T11:37:31;15.02;;;11.20;;
42662;SDS011;44330;51.360;6.686;2023-05-21T11:42:54;13.35;;;10.80;;
42662;SDS011;44330;51.360;6.686;2023-05-21T11:45:21;17.20;;;12.23;;
42662;SDS011;44330;51.360;6.686;2023-05-21T11:47:52;19.55;;;11.52;;
42662;SDS011;44330;51.360;6.686;2023-05-21T11:50:18;18.38;;;11.90;;
42662;SDS011;44330;51.360;6.686;2023-05-21T11:52:44;15.95;;;11.45;;
42662;SDS011;44330;51.360;6.686;2023-05-21T11:55:10;17.50;;;12.52;;
42662;SDS011;44330;51.360;6.686;2023-05-21T11:57:36;20.92;;;12.90;;
42662;SDS011;44330;51.360;6.686;2023-05-21T12:00:06;21.23;;;11.57;;
42662;SDS011;44330;51.360;6.686;2023-05-21T12:02:42;15.27;;;10.65;;
42662;SDS011;44330;51.360;6.686;2023-05-21T12:05:09;15.05;;;11.40;;
42662;SDS011;44330;51.360;6.686;2023-05-21T12:07:34;19.63;;;14.50;;
42662;SDS011;44330;51.360;6.686;2023-05-21T12:10:00;16.70;;;13.55;;
42662;SDS011;44330;51.360;6.686;2023-05-21T12:12:26;18.65;;;11.13;;
42662;SDS011;44330;51.360;6.686;2023-05-21T12:14:53;17.90;;;13.88;;
42662;SDS011;44330;51.360;6.686;2023-05-21T12:17:20;15.93;;;12.10;;
42662;SDS011;44330;51.360;6.686;2023-05-21T12:19:48;17.70;;;11.13;;
42662;SDS011;44330;51.360;6.686;2023-05-21T12:22:15;17.00;;;12.57;;
42662;SDS011;44330;51.360;6.686;2023-05-21T12:24:41;16.73;;;11.13;;
42662;SDS011;44330;51.360;6.686;2023-05-21T12:27:10;19.88;;;14.13;;
42662;SDS011;44330;51.360;6.686;2023-05-21T12:29:41;18.33;;;13.65;;
42662;SDS011;44330;51.360;6.686;2023-05-21T12:32:09;18.88;;;13.15;;
42662;SDS011;44330;51.360;6.686;2023-05-21T12:37:03;17.70;;;13.38;;
42662;SDS011;44330;51.360;6.686;2023-05-21T12:39:30;18.48;;;13.73;;
42662;SDS011;44330;51.360;6.686;2023-05-21T12:41:56;19.42;;;13.95;;
42662;SDS011;44330;51.360;6.686;2023-05-21T12:44:22;18.58;;;14.45;;
42662;SDS011;44330;51.360;6.686;2023-05-21T12:46:48;18.02;;;13.85;;
42662;SDS011;44330;51.360;6.686;2023-05-21T12:49:56;20.50;;;13.45;;
42662;SDS011;44330;51.360;6.686;2023-05-21T12:52:09;19.52;;;13.82;;
42662;SDS011;44330;51.360;6.686;2023-05-21T12:54:37;20.65;;;16.10;;
42662;SDS011;44330;51.360;6.686;2023-05-21T12:57:08;21.95;;;15.35;;
42662;SDS011;44330;51.360;6.686;2023-05-21T13:02:21;17.27;;;13.80;;
42662;SDS011;44330;51.360;6.686;2023-05-21T13:04:59;16.70;;;13.55;;
42662;SDS011;44330;51.360;6.686;2023-05-21T13:07:25;20.48;;;14.10;;
42662;SDS011;44330;51.360;6.686;2023-05-21T13:09:53;19.73;;;13.90;;
42662;SDS011;44330;51.360;6.686;2023-05-21T13:12:20;17.88;;;13.50;;
42662;SDS011;44330;51.360;6.686;2023-05-21T13:14:47;21.33;;;13.90;;
42662;SDS011;44330;51.360;6.686;2023-05-21T13:17:14;17.67;;;13.45;;
42662;SDS011;44330;51.360;6.686;2023-05-21T13:19:40;18.92;;;14.23;;
42662;SDS011;44330;51.360;6.686;2023-05-21T13:22:05;15.75;;;12.27;;
42662;SDS011;44330;51.360;6.686;2023-05-21T13:24:31;18.67;;;13.10;;
42662;SDS011;44330;51.360;6.686;2023-05-21T13:26:57;18.48;;;12.85;;
42662;SDS011;44330;51.360;6.686;2023-05-21T13:29:22;18.83;;;13.27;;
42662;SDS011;44330;51.360;6.686;2023-05-21T13:31:48;16.00;;;13.20;;
42662;SDS011;44330;51.360;6.686;2023-05-21T13:34:14;19.45;;;12.45;;
42662;SDS011;44330;51.360;6.686;2023-05-21T13:36:39;14.70;;;11.95;;
42662;SDS011;44330;51.360;6.686;2023-05-21T13:39:05;19.33;;;12.88;;
42662;SDS011;44330;51.360;6.686;2023-05-21T13:41:31;17.42;;;12.25;;
42662;SDS011;44330;51.360;6.686;2023-05-21T13:43:57;12.15;;;10.68;;
42662;SDS011;44330;51.360;6.686;2023-05-21T13:46:23;15.60;;;12.23;;
42662;SDS011;44330;51.360;6.686;2023-05-21T13:48:49;17.58;;;12.52;;
42662;SDS011;44330;51.360;6.686;2023-05-21T13:51:14;16.13;;;12.55;;
42662;SDS011;44330;51.360;6.686;2023-05-21T13:53:40;18.10;;;11.32;;
42662;SDS011;44330;51.360;6.686;2023-05-21T13:56:06;14.75;;;12.70;;
42662;SDS011;44330;51.360;6.686;2023-05-21T13:58:31;21.75;;;12.68;;
42662;SDS011;44330;51.360;6.686;2023-05-21T14:00:59;18.65;;;13.25;;
42662;SDS011;44330;51.360;6.686;2023-05-21T14:03:25;17.23;;;11.80;;
42662;SDS011;44330;51.360;6.686;2023-05-21T14:05:51;17.00;;;11.95;;
42662;SDS011;44330;51.360;6.686;2023-05-21T14:08:18;16.20;;;12.38;;
42662;SDS011;44330;51.360;6.686;2023-05-21T14:10:44;16.23;;;11.98;;
42662;SDS011;44330;51.360;6.686;2023-05-21T14:13:11;17.48;;;12.05;;
42662;SDS011;44330;51.360;6.686;2023-05-21T14:15:37;17.02;;;11.98;;
42662;SDS011;44330;51.360;6.686;2023-05-21T14:18:03;14.70;;;12.02;;
42662;SDS011;44330;51.360;6.686;2023-05-21T14:23:01;17.98;;;11.50;;
42662;SDS011;44330;51.360;6.686;2023-05-21T14:25:27;18.40;;;11.10;;
42662;SDS011;44330;51.360;6.686;2023-05-21T14:27:52;19.95;;;11.43;;
42662;SDS011;44330;51.360;6.686;2023-05-21T14:30:18;16.98;;;11.23;;
42662;SDS011;44330;51.360;6.686;2023-05-21T14:32:43;14.90;;;12.23;;
42662;SDS011;44330;51.360;6.686;2023-05-21T14:35:09;14.77;;;11.75;;
42662;SDS011;44330;51.360;6.686;2023-05-21T14:37:35;15.63;;;12.18;;
42662;SDS011;44330;51.360;6.686;2023-05-21T14:40:00;15.35;;;11.50;;
42662;SDS011;44330;51.360;6.686;2023-05-21T14:42:27;15.05;;;11.32;;
42662;SDS011;44330;51.360;6.686;2023-05-21T14:44:53;12.93;;;10.65;;
42662;SDS011;44330;51.360;6.686;2023-05-21T14:47:18;20.25;;;11.35;;
42662;SDS011;44330;51.360;6.686;2023-05-21T14:49:44;18.50;;;11.95;;
42662;SDS011;44330;51.360;6.686;2023-05-21T14:52:09;16.23;;;12.13;;
42662;SDS011;44330;51.360;6.686;2023-05-21T14:54:35;15.55;;;10.60;;
42662;SDS011;44330;51.360;6.686;2023-05-21T14:57:01;16.95;;;11.30;;
42662;SDS011;44330;51.360;6.686;2023-05-21T14:59:27;12.98;;;10.70;;
42662;SDS011;44330;51.360;6.686;2023-05-21T15:01:52;15.50;;;12.00;;
42662;SDS011;44330;51.360;6.686;2023-05-21T15:04:18;17.40;;;12.48;;
42662;SDS011;44330;51.360;6.686;2023-05-21T15:06:43;17.40;;;12.73;;
42662;SDS011;44330;51.360;6.686;2023-05-21T15:09:09;16.88;;;12.85;;
42662;SDS011;44330;51.360;6.686;2023-05-21T15:11:34;20.15;;;13.85;;
42662;SDS011;44330;51.360;6.686;2023-05-21T15:14:00;14.93;;;11.98;;